createdAt,value
2023-01-27T00:00:26.647Z,16.08
2023-01-27T00:02:53.118Z,14.80
2023-01-27T00:05:19.515Z,15.23
2023-01-27T00:07:46.084Z,15.68
2023-01-27T00:10:14.334Z,17.17
2023-01-27T00:12:59.804Z,15.90
2023-01-27T00:15:26.497Z,17.23
2023-01-27T00:17:52.954Z,16.17
2023-01-27T00:20:42.080Z,14.85
2023-01-27T00:23:36.964Z,15.10
2023-01-27T00:26:06.426Z,16.38
2023-01-27T00:28:36.555Z,16.63
2023-01-27T00:31:03.394Z,16.30
2023-01-27T00:33:29.889Z,16.85
2023-01-27T00:35:57.606Z,17.42
2023-01-27T00:38:23.927Z,16.90
2023-01-27T00:41:10.297Z,17.17
2023-01-27T00:43:36.681Z,16.67
2023-01-27T00:46:03.098Z,16.10
2023-01-27T00:48:29.581Z,16.17
2023-01-27T00:50:56.195Z,16.08
2023-01-27T00:53:22.685Z,16.45
2023-01-27T00:55:49.274Z,16.20
2023-01-27T00:58:15.708Z,16.33
2023-01-27T01:00:42.231Z,16.15
2023-01-27T01:03:08.600Z,15.35
2023-01-27T01:05:35.007Z,15.43
2023-01-27T01:08:01.396Z,15.15
2023-01-27T01:10:27.753Z,14.77
2023-01-27T01:12:54.107Z,14.90
2023-01-27T01:15:20.533Z,14.93
2023-01-27T01:17:46.919Z,16.33
2023-01-27T01:20:13.653Z,15.75
2023-01-27T01:22:40.216Z,13.75
2023-01-27T01:25:07.902Z,14.07
2023-01-27T01:27:34.456Z,13.73
2023-01-27T01:30:01.248Z,14.20
2023-01-27T01:32:27.585Z,14.35
2023-01-27T01:34:55.212Z,14.55
2023-01-27T01:37:21.576Z,13.73
2023-01-27T01:39:48.008Z,13.38
2023-01-27T01:42:14.376Z,13.25
2023-01-27T01:44:43.626Z,12.50
2023-01-27T01:47:14.932Z,13.43
2023-01-27T01:49:41.822Z,13.18
2023-01-27T01:52:15.861Z,14.45
2023-01-27T01:54:53.655Z,14.10
2023-01-27T01:57:22.272Z,13.43
2023-01-27T01:59:51.772Z,14.32
2023-01-27T02:02:22.005Z,12.40
2023-01-27T02:04:58.730Z,12.88
2023-01-27T02:07:37.442Z,12.38
2023-01-27T02:10:04.276Z,13.82
2023-01-27T02:12:30.645Z,13.93
2023-01-27T02:14:57.278Z,11.88
2023-01-27T02:17:23.728Z,14.25
2023-01-27T02:20:09.277Z,14.10
2023-01-27T02:22:41.722Z,13.80
2023-01-27T02:25:28.695Z,14.18
2023-01-27T02:27:55.077Z,12.63
2023-01-27T02:30:21.519Z,13.88
2023-01-27T02:32:47.911Z,14.85
2023-01-27T02:35:16.884Z,14.52
2023-01-27T02:37:43.308Z,13.98
2023-01-27T02:40:10.712Z,14.05
2023-01-27T02:42:37.092Z,14.40
2023-01-27T02:45:03.903Z,14.52
2023-01-27T02:47:30.403Z,14.23
2023-01-27T02:49:56.847Z,16.60
2023-01-27T02:52:23.221Z,13.23
2023-01-27T02:54:49.642Z,12.45
2023-01-27T02:57:15.993Z,12.85
2023-01-27T02:59:42.474Z,16.00
2023-01-27T03:02:08.825Z,13.25
2023-01-27T03:04:39.245Z,13.23
2023-01-27T03:07:05.696Z,12.02
2023-01-27T03:09:32.012Z,11.77
2023-01-27T03:12:17.392Z,14.93
2023-01-27T03:15:02.289Z,18.40
2023-01-27T03:17:47.485Z,19.27
2023-01-27T03:20:13.977Z,13.70
2023-01-27T03:22:40.327Z,14.05
2023-01-27T03:25:06.893Z,13.63
2023-01-27T03:27:33.212Z,13.80
2023-01-27T03:29:59.963Z,13.48
2023-01-27T03:32:27.674Z,14.60
2023-01-27T03:34:54.628Z,14.30
2023-01-27T03:37:39.435Z,14.93
2023-01-27T03:40:25.077Z,15.97
2023-01-27T03:43:11.253Z,20.85
2023-01-27T03:45:56.229Z,20.63
2023-01-27T03:48:22.577Z,17.02
2023-01-27T03:50:53.948Z,23.48
2023-01-27T03:53:20.786Z,22.67
2023-01-27T03:55:47.767Z,23.85
2023-01-27T03:58:39.367Z,23.20
2023-01-27T04:01:07.316Z,22.02
2023-01-27T04:03:53.401Z,23.13
2023-01-27T04:06:42.839Z,23.00
2023-01-27T04:09:10.103Z,20.85
2023-01-27T04:11:55.237Z,23.23
2023-01-27T04:14:22.686Z,21.60
2023-01-27T04:16:50.199Z,22.83
2023-01-27T04:19:16.688Z,25.65
2023-01-27T04:21:43.522Z,27.92
2023-01-27T04:24:17.206Z,26.25
2023-01-27T04:26:44.712Z,26.95
2023-01-27T04:29:11.843Z,28.52
2023-01-27T04:31:38.204Z,23.48
2023-01-27T04:34:04.692Z,22.05
2023-01-27T04:36:31.435Z,20.05
2023-01-27T04:38:57.786Z,21.88
2023-01-27T04:41:24.163Z,21.13
2023-01-27T04:43:50.612Z,23.88
2023-01-27T04:46:17.039Z,27.42
2023-01-27T04:48:43.466Z,24.40
2023-01-27T04:51:09.837Z,24.50
2023-01-27T04:53:36.179Z,22.58
2023-01-27T04:56:04.380Z,26.58
2023-01-27T04:58:30.746Z,29.33
2023-01-27T05:00:57.124Z,30.45
2023-01-27T05:03:23.498Z,25.45
2023-01-27T05:05:49.981Z,27.05
2023-01-27T05:08:16.308Z,32.42
2023-01-27T05:10:43.328Z,33.10
2023-01-27T05:13:09.737Z,25.70
2023-01-27T05:15:36.222Z,40.20
2023-01-27T05:18:02.648Z,34.85
2023-01-27T05:20:29.286Z,30.30
2023-01-27T05:23:15.615Z,31.75
2023-01-27T05:25:44.783Z,25.25
2023-01-27T05:28:11.686Z,26.05
2023-01-27T05:30:38.342Z,25.73
2023-01-27T05:33:04.760Z,27.08
2023-01-27T05:35:34.315Z,28.38
2023-01-27T05:38:00.844Z,28.77
2023-01-27T05:40:27.450Z,32.15
2023-01-27T05:42:54.325Z,29.15
2023-01-27T05:45:20.735Z,31.52
2023-01-27T05:47:50.804Z,28.50
2023-01-27T05:50:17.670Z,31.70
2023-01-27T05:52:44.143Z,26.20
2023-01-27T05:55:10.545Z,26.05
2023-01-27T05:57:36.895Z,25.77
2023-01-27T06:00:03.767Z,24.23
2023-01-27T06:02:30.099Z,26.55
2023-01-27T06:04:56.474Z,26.70
2023-01-27T06:07:22.820Z,25.15
2023-01-27T06:09:49.456Z,22.88
2023-01-27T06:12:15.829Z,23.23
2023-01-27T06:14:42.219Z,24.63
2023-01-27T06:17:08.757Z,28.48
2023-01-27T06:19:35.104Z,26.40
2023-01-27T06:22:03.115Z,25.75
2023-01-27T06:24:29.537Z,24.88
2023-01-27T06:26:58.431Z,24.25
2023-01-27T06:29:24.812Z,23.52
2023-01-27T06:31:51.197Z,23.83
2023-01-27T06:34:17.550Z,25.05
2023-01-27T06:36:43.941Z,24.25
2023-01-27T06:39:10.320Z,23.17
2023-01-27T06:41:36.769Z,23.88
2023-01-27T06:44:04.376Z,24.55
2023-01-27T06:46:30.842Z,23.05
2023-01-27T06:48:57.278Z,23.38
2023-01-27T06:51:23.701Z,23.13
2023-01-27T06:53:50.028Z,23.70
2023-01-27T06:56:17.474Z,24.83
2023-01-27T06:58:44.285Z,21.17
2023-01-27T07:01:10.789Z,20.60
2023-01-27T07:03:37.236Z,22.38
2023-01-27T07:06:03.768Z,22.55
2023-01-27T07:08:30.111Z,20.85
2023-01-27T07:10:56.469Z,21.77
2023-01-27T07:13:23.165Z,20.02
2023-01-27T07:15:53.934Z,20.95
2023-01-27T07:18:20.290Z,18.65
2023-01-27T07:20:46.604Z,18.58
2023-01-27T07:23:13.255Z,17.50
2023-01-27T07:25:40.073Z,18.30
2023-01-27T07:28:06.711Z,18.48
2023-01-27T07:30:34.126Z,18.90
2023-01-27T07:33:08.167Z,15.85
2023-01-27T07:35:35.859Z,14.23
2023-01-27T07:38:02.384Z,13.07
2023-01-27T07:40:28.843Z,12.50
2023-01-27T07:42:57.992Z,14.00
2023-01-27T07:45:24.561Z,13.20
2023-01-27T07:47:50.908Z,12.85
2023-01-27T07:50:17.334Z,12.05
2023-01-27T07:52:43.765Z,13.95
2023-01-27T07:55:10.285Z,13.68
2023-01-27T07:57:36.656Z,11.38
2023-01-27T08:00:06.696Z,13.18
2023-01-27T08:02:33.047Z,12.07
2023-01-27T08:04:59.363Z,15.48
2023-01-27T08:07:25.788Z,15.52
2023-01-27T08:09:54.484Z,12.00
2023-01-27T08:12:20.906Z,11.25
2023-01-27T08:14:47.271Z,11.35
2023-01-27T08:17:13.609Z,10.32
2023-01-27T08:19:40.175Z,11.05
2023-01-27T08:22:06.578Z,10.10
2023-01-27T08:24:32.894Z,9.13
2023-01-27T08:26:59.359Z,9.27
2023-01-27T08:29:25.799Z,11.82
2023-01-27T08:31:52.227Z,9.07
2023-01-27T08:34:19.067Z,8.85
2023-01-27T08:36:45.437Z,9.23
2023-01-27T08:39:11.810Z,10.02
2023-01-27T08:41:38.763Z,8.90
2023-01-27T08:44:05.198Z,9.18
2023-01-27T08:46:31.592Z,8.95
2023-01-27T08:48:57.967Z,9.05
2023-01-27T08:51:24.335Z,11.63
2023-01-27T08:53:50.740Z,10.25
2023-01-27T08:56:17.129Z,9.07
2023-01-27T08:58:45.894Z,8.40
2023-01-27T09:01:12.329Z,10.38
2023-01-27T09:03:38.745Z,11.35
2023-01-27T09:06:07.475Z,14.20
2023-01-27T09:08:33.938Z,11.63
2023-01-27T09:11:00.351Z,9.25
2023-01-27T09:13:28.227Z,12.23
2023-01-27T09:15:54.651Z,12.13
2023-01-27T09:18:21.336Z,11.68
2023-01-27T09:20:47.710Z,12.20
2023-01-27T09:23:14.136Z,11.07
2023-01-27T09:25:40.566Z,11.40
2023-01-27T09:28:09.937Z,16.30
2023-01-27T09:30:36.386Z,12.75
2023-01-27T09:33:02.877Z,13.23
2023-01-27T09:35:35.454Z,12.57
2023-01-27T09:38:03.886Z,13.05
2023-01-27T09:40:38.289Z,12.75
2023-01-27T09:43:20.042Z,10.67
2023-01-27T09:45:46.524Z,8.85
2023-01-27T09:48:12.831Z,8.48
2023-01-27T09:50:39.149Z,8.55
2023-01-27T09:53:13.873Z,8.68
2023-01-27T09:55:43.139Z,6.15
2023-01-27T09:58:09.724Z,7.93
2023-01-27T10:00:53.203Z,8.95
2023-01-27T10:03:38.457Z,11.00
2023-01-27T10:06:20.065Z,6.15
2023-01-27T10:09:04.919Z,10.75
2023-01-27T10:11:51.486Z,10.47
2023-01-27T10:14:20.992Z,8.27
2023-01-27T10:16:47.336Z,9.02
2023-01-27T10:19:17.163Z,9.35
2023-01-27T10:22:02.372Z,9.45
2023-01-27T10:24:49.001Z,8.27
2023-01-27T10:27:22.472Z,10.63
2023-01-27T10:29:56.755Z,15.57
2023-01-27T10:32:28.147Z,10.73
2023-01-27T10:35:12.867Z,8.90
2023-01-27T10:37:51.247Z,8.95
2023-01-27T10:40:21.829Z,11.15
2023-01-27T10:43:04.190Z,9.77
2023-01-27T10:45:37.579Z,11.23
2023-01-27T10:48:18.708Z,10.52
2023-01-27T10:50:47.763Z,11.52
2023-01-27T10:53:14.090Z,11.43
2023-01-27T10:55:43.558Z,9.32
2023-01-27T10:58:12.645Z,10.00
2023-01-27T11:01:13.301Z,9.45
2023-01-27T11:03:28.069Z,9.13
2023-01-27T11:05:56.467Z,10.48
2023-01-27T11:08:25.718Z,10.18
2023-01-27T11:11:12.808Z,9.85
2023-01-27T11:13:39.563Z,10.60
2023-01-27T11:16:07.357Z,10.50
2023-01-27T11:18:35.002Z,10.68
2023-01-27T11:21:10.834Z,10.57
2023-01-27T11:23:42.779Z,10.80
2023-01-27T11:26:24.184Z,11.10
2023-01-27T11:28:53.571Z,10.93
2023-01-27T11:31:26.259Z,9.57
2023-01-27T11:33:58.460Z,8.13
2023-01-27T11:36:25.890Z,10.13
2023-01-27T11:38:53.139Z,9.80
2023-01-27T11:41:19.654Z,10.30
2023-01-27T11:43:46.105Z,10.02
2023-01-27T11:46:16.408Z,10.63
2023-01-27T11:48:45.134Z,10.80
2023-01-27T11:51:18.419Z,10.20
2023-01-27T11:53:45.182Z,9.55
2023-01-27T11:56:17.254Z,9.88
2023-01-27T11:58:47.280Z,8.55
2023-01-27T12:01:15.872Z,9.68
2023-01-27T12:04:04.885Z,8.95
2023-01-27T12:06:34.808Z,9.52
2023-01-27T12:09:01.214Z,9.77
2023-01-27T12:11:28.953Z,9.50
2023-01-27T12:13:55.521Z,9.43
2023-01-27T12:16:23.623Z,9.02
2023-01-27T12:19:02.589Z,9.73
2023-01-27T12:21:37.310Z,9.88
2023-01-27T12:24:03.830Z,10.15
2023-01-27T12:26:34.693Z,8.75
2023-01-27T12:29:04.519Z,10.48
2023-01-27T12:31:31.813Z,9.95
2023-01-27T12:34:07.274Z,9.35
2023-01-27T12:39:01.026Z,9.27
2023-01-27T12:41:28.911Z,9.15
2023-01-27T12:43:56.989Z,9.63
2023-01-27T12:46:27.335Z,9.48
2023-01-27T12:48:59.958Z,8.32
2023-01-27T12:51:44.927Z,8.40
2023-01-27T12:54:16.596Z,8.57
2023-01-27T12:56:43.095Z,8.07
2023-01-27T12:59:13.409Z,7.07
2023-01-27T13:01:41.422Z,7.45
2023-01-27T13:04:16.871Z,6.70
2023-01-27T13:09:28.878Z,6.82
2023-01-27T13:11:57.229Z,6.88
2023-01-27T13:14:23.712Z,6.50
2023-01-27T13:16:54.093Z,7.20
2023-01-27T13:19:20.673Z,7.00
2023-01-27T13:21:49.199Z,6.63
2023-01-27T13:24:21.571Z,11.43
2023-01-27T13:26:49.338Z,9.88
2023-01-27T13:29:21.340Z,10.30
2023-01-27T13:31:53.941Z,17.40
2023-01-27T13:34:38.595Z,11.45
2023-01-27T13:37:20.570Z,6.80
2023-01-27T13:39:54.769Z,8.57
2023-01-27T13:42:43.706Z,6.80
2023-01-27T13:45:18.631Z,11.32
2023-01-27T13:48:11.565Z,9.20
2023-01-27T13:50:39.657Z,10.82
2023-01-27T13:53:09.037Z,8.80
2023-01-27T13:55:54.833Z,8.98
2023-01-27T14:01:06.754Z,11.40
2023-01-27T14:03:53.338Z,10.05
2023-01-27T14:06:22.726Z,12.30
2023-01-27T14:08:55.329Z,13.52
2023-01-27T14:11:35.752Z,11.68
2023-01-27T14:14:10.684Z,9.63
2023-01-27T14:16:57.600Z,8.65
2023-01-27T14:19:36.989Z,8.73
2023-01-27T14:22:11.076Z,8.98
2023-01-27T14:24:46.876Z,8.00
2023-01-27T14:27:16.295Z,6.60
2023-01-27T14:29:53.776Z,7.55
2023-01-27T14:32:20.307Z,7.07
2023-01-27T14:35:07.633Z,7.93
2023-01-27T14:37:52.974Z,7.60
2023-01-27T14:40:33.543Z,8.25
2023-01-27T14:43:02.723Z,8.32
2023-01-27T14:45:32.726Z,8.82
2023-01-27T14:48:25.263Z,8.25
2023-01-27T14:50:54.781Z,7.45
2023-01-27T14:53:39.435Z,8.00
2023-01-27T14:56:05.814Z,9.48
2023-01-27T14:58:50.910Z,9.95
2023-01-27T15:01:27.742Z,7.28
2023-01-27T15:04:03.027Z,8.95
2023-01-27T15:06:33.823Z,8.90
2023-01-27T15:09:00.156Z,8.80
2023-01-27T15:11:47.220Z,9.02
2023-01-27T15:14:33.636Z,9.23
2023-01-27T15:17:18.621Z,21.50
2023-01-27T15:19:45.045Z,14.38
2023-01-27T15:22:11.598Z,11.43
2023-01-27T15:24:45.507Z,10.45
2023-01-27T15:27:21.288Z,8.50
2023-01-27T15:29:48.464Z,13.38
2023-01-27T15:32:17.992Z,14.70
2023-01-27T15:34:45.571Z,12.02
2023-01-27T15:37:13.581Z,11.07
2023-01-27T15:40:05.265Z,11.05
2023-01-27T15:42:51.511Z,10.45
2023-01-27T15:45:27.010Z,10.95
2023-01-27T15:48:01.581Z,9.85
2023-01-27T15:50:30.341Z,9.90
2023-01-27T15:53:01.652Z,9.52
2023-01-27T15:55:30.011Z,9.43
2023-01-27T15:58:12.672Z,11.70
2023-01-27T16:00:41.642Z,18.02
2023-01-27T16:03:21.251Z,11.73
2023-01-27T16:05:52.219Z,11.02
2023-01-27T16:08:19.274Z,15.73
2023-01-27T16:10:45.831Z,19.20
2023-01-27T16:13:21.458Z,15.43
2023-01-27T16:15:47.957Z,22.50
2023-01-27T16:18:15.148Z,18.30
2023-01-27T16:20:59.887Z,14.38
2023-01-27T16:23:35.522Z,10.50
2023-01-27T16:26:08.688Z,14.18
2023-01-27T16:28:35.971Z,17.20
2023-01-27T16:31:19.977Z,13.70
2023-01-27T16:33:48.023Z,14.02
2023-01-27T16:36:20.502Z,12.43
2023-01-27T16:38:48.086Z,12.30
2023-01-27T16:41:20.609Z,10.55
2023-01-27T16:43:51.948Z,13.63
2023-01-27T16:46:38.773Z,12.57
2023-01-27T16:49:16.387Z,10.77
2023-01-27T16:51:43.091Z,10.60
2023-01-27T16:54:21.464Z,12.18
2023-01-27T16:56:50.076Z,11.23
2023-01-27T16:59:21.061Z,13.80
2023-01-27T17:01:50.391Z,13.18
2023-01-27T17:04:20.299Z,10.82
2023-01-27T17:06:47.439Z,16.05
2023-01-27T17:09:19.916Z,13.90
2023-01-27T17:11:46.462Z,15.95
2023-01-27T17:14:28.663Z,14.25
2023-01-27T17:17:00.161Z,20.52
2023-01-27T17:19:36.175Z,27.55
2023-01-27T17:22:10.128Z,13.75
2023-01-27T17:24:38.190Z,15.43
2023-01-27T17:27:06.468Z,18.27
2023-01-27T17:29:38.155Z,12.98
2023-01-27T17:32:16.685Z,10.68
2023-01-27T17:34:43.146Z,11.55
2023-01-27T17:37:12.903Z,10.23
2023-01-27T17:39:39.683Z,9.20
2023-01-27T17:42:06.452Z,9.13
2023-01-27T17:44:32.955Z,10.20
2023-01-27T17:46:59.746Z,11.55
2023-01-27T17:49:26.818Z,10.80
2023-01-27T17:51:57.600Z,11.02
2023-01-27T17:54:35.234Z,10.07
2023-01-27T17:57:21.563Z,11.38
2023-01-27T17:59:56.502Z,10.10
2023-01-27T18:02:25.965Z,10.82
2023-01-27T18:04:53.081Z,9.32
2023-01-27T18:07:19.712Z,9.82
2023-01-27T18:09:51.466Z,9.13
2023-01-27T18:12:27.145Z,9.77
2023-01-27T18:14:53.461Z,8.15
2023-01-27T18:17:22.947Z,8.98
2023-01-27T18:19:53.186Z,9.15
2023-01-27T18:22:19.850Z,8.82
2023-01-27T18:24:53.605Z,8.55
2023-01-27T18:27:22.976Z,8.35
2023-01-27T18:29:51.424Z,8.38
2023-01-27T18:32:19.628Z,8.43
2023-01-27T18:34:47.542Z,7.90
2023-01-27T18:37:32.966Z,9.13
2023-01-27T18:40:00.263Z,9.13
2023-01-27T18:42:28.407Z,9.88
2023-01-27T18:44:55.413Z,10.10
2023-01-27T18:47:25.186Z,10.02
2023-01-27T18:49:57.735Z,11.80
2023-01-27T18:52:24.103Z,10.88
2023-01-27T18:54:53.351Z,11.80
2023-01-27T18:57:19.676Z,11.52
2023-01-27T18:59:46.010Z,12.13
2023-01-27T19:02:14.420Z,12.00
2023-01-27T19:04:40.815Z,11.45
2023-01-27T19:07:14.004Z,11.93
2023-01-27T19:09:40.407Z,11.98
2023-01-27T19:12:06.789Z,12.27
2023-01-27T19:14:34.792Z,12.75
2023-01-27T19:17:01.334Z,13.88
2023-01-27T19:19:27.634Z,13.95
2023-01-27T19:21:53.963Z,15.02
2023-01-27T19:24:20.428Z,15.07
2023-01-27T19:26:46.927Z,15.55
2023-01-27T19:29:14.264Z,15.38
2023-01-27T19:31:40.714Z,15.25
2023-01-27T19:34:10.190Z,15.68
2023-01-27T19:36:42.691Z,15.55
2023-01-27T19:39:19.828Z,17.63
2023-01-27T19:41:46.614Z,16.58
2023-01-27T19:44:13.630Z,17.00
2023-01-27T19:46:40.466Z,16.15
2023-01-27T19:49:07.503Z,16.08
2023-01-27T19:51:34.096Z,15.48
2023-01-27T19:54:00.517Z,16.48
2023-01-27T19:56:29.294Z,16.25
2023-01-27T19:58:55.731Z,15.65
2023-01-27T20:01:23.272Z,18.65
2023-01-27T20:03:50.049Z,17.02
2023-01-27T20:06:16.735Z,16.35
2023-01-27T20:08:43.293Z,17.05
2023-01-27T20:11:27.684Z,17.00
2023-01-27T20:13:54.087Z,16.33
2023-01-27T20:16:20.447Z,15.93
2023-01-27T20:18:46.867Z,18.65
2023-01-27T20:21:13.663Z,18.00
2023-01-27T20:23:40.013Z,18.77
2023-01-27T20:26:09.383Z,19.45
2023-01-27T20:28:35.697Z,18.30
2023-01-27T20:31:02.132Z,19.80
2023-01-27T20:33:28.595Z,19.20
2023-01-27T20:35:54.933Z,19.38
2023-01-27T20:38:21.342Z,20.30
2023-01-27T20:40:47.671Z,19.77
2023-01-27T20:43:19.035Z,20.58
2023-01-27T20:45:50.076Z,20.60
2023-01-27T20:48:20.444Z,19.02
2023-01-27T20:50:47.035Z,18.80
2023-01-27T20:53:13.407Z,19.67
2023-01-27T20:55:39.907Z,19.48
2023-01-27T20:58:06.341Z,17.90
2023-01-27T21:00:32.759Z,19.17
2023-01-27T21:02:59.135Z,19.98
2023-01-27T21:05:25.492Z,20.83
2023-01-27T21:07:51.885Z,20.80
2023-01-27T21:10:19.064Z,22.05
2023-01-27T21:12:45.482Z,19.92
2023-01-27T21:15:13.267Z,17.95
2023-01-27T21:17:39.842Z,17.85
2023-01-27T21:20:06.635Z,16.92
2023-01-27T21:22:34.510Z,16.50
2023-01-27T21:25:00.965Z,16.08
2023-01-27T21:27:27.347Z,16.33
2023-01-27T21:29:53.699Z,16.48
2023-01-27T21:32:20.084Z,17.75
2023-01-27T21:34:46.480Z,18.90
2023-01-27T21:37:12.906Z,21.70
2023-01-27T21:39:39.261Z,19.02
2023-01-27T21:42:05.591Z,19.45
2023-01-27T21:44:50.682Z,19.55
2023-01-27T21:47:19.204Z,19.77
2023-01-27T21:50:01.347Z,19.92
2023-01-27T21:52:32.634Z,20.05
2023-01-27T21:54:59.455Z,18.25
2023-01-27T21:57:26.052Z,19.60
2023-01-27T21:59:52.396Z,20.63
2023-01-27T22:02:18.852Z,19.50
2023-01-27T22:04:45.807Z,19.83
2023-01-27T22:07:13.103Z,20.02
2023-01-27T22:09:39.654Z,20.48
2023-01-27T22:12:06.874Z,21.15
2023-01-27T22:14:33.727Z,22.40
2023-01-27T22:17:00.155Z,21.15
2023-01-27T22:19:26.609Z,20.80
2023-01-27T22:21:53.310Z,22.08
2023-01-27T22:24:19.928Z,21.10
2023-01-27T22:26:47.364Z,24.20
2023-01-27T22:29:13.876Z,25.83
2023-01-27T22:31:41.834Z,23.55
2023-01-27T22:34:08.598Z,24.02
2023-01-27T22:36:35.303Z,23.05
2023-01-27T22:39:01.673Z,23.75
2023-01-27T22:41:30.864Z,22.15
2023-01-27T22:43:57.269Z,23.17
2023-01-27T22:46:23.754Z,22.20
2023-01-27T22:48:50.451Z,22.30
2023-01-27T22:51:17.311Z,21.38
2023-01-27T22:53:44.027Z,20.58
2023-01-27T22:56:10.338Z,21.42
2023-01-27T22:58:36.761Z,20.52
2023-01-27T23:01:06.824Z,19.70
2023-01-27T23:03:33.697Z,20.15
2023-01-27T23:06:06.821Z,20.83
2023-01-27T23:08:33.711Z,20.23
2023-01-27T23:11:01.528Z,20.98
2023-01-27T23:13:28.499Z,21.15
2023-01-27T23:15:54.901Z,20.33
2023-01-27T23:18:21.297Z,19.13
2023-01-27T23:20:47.785Z,19.33
2023-01-27T23:23:19.139Z,20.35
2023-01-27T23:25:46.179Z,17.63
2023-01-27T23:28:13.049Z,19.63
2023-01-27T23:30:44.645Z,18.67
2023-01-27T23:33:12.074Z,18.15
2023-01-27T23:35:39.198Z,17.80
2023-01-27T23:38:10.689Z,18.55
2023-01-27T23:40:44.070Z,17.48
2023-01-27T23:43:10.639Z,17.17
2023-01-27T23:45:37.032Z,17.60
2023-01-27T23:48:03.585Z,17.17
2023-01-27T23:50:30.018Z,17.63
2023-01-27T23:52:56.427Z,16.27
2023-01-27T23:55:22.925Z,15.63
2023-01-27T23:57:49.292Z,17.30
